Buena Vista, Indiana
Current Conditions -  °F | °C
As of 8:35 PM on Thursday 27 Nov 2014 (Local Time) from KI67 Reporting Station
Overcast Overcast  
Wind Chill: 24°   Ceiling: 4100
Heat Index: 30°   Visibility: 10mi
Dew Point: 23°   Wind: 6mph
Humidity: 75%   Direction: 280°W
Pressure: 30.4"   Gusts: NA
Location:  39.4846°N, 85.1967°W
Report Text: KI67 280135Z AUTO 28005KT 10SM SCT029 OVC041 M01/M05 A3040 RMK AO1
Loading
Personal Weather Stations






























Interactive Weather Map New forecast layout! Learn more

10-Day Weather Forecast

Advertisements
Track Severe Weather on mobile